Item Display Status Serial CT Sensor

Mooring Depth: 1 m

 

Deployed Sensor

  • Serial Number: 14624
  • NDBC Property Number: 40636
  • Start Date: 6/25/2020 (11:53:57 Z)
  • End Date: Currently Active
Water Temperature [°C]     6 entries per hour
Showing data from 3/2/2022 (02:00:00 Z) to 3/1/2022 (00:00:01 Z)
Previous Next [ Day | 3-Days | 7-Days ]
First Last
Prev [ Day | 3-Days | 7-Days ] Next
First Last

Start Time:     :
End Time:     :     
Time (in GMT) :00 :50 :40 :30 :20 :10
Previous Next [ Day | 3-Days | 7-Days ]
First Last
Prev [ Day | 3-Days | 7-Days ] Next
First Last


123 => good data
MM => data is determined as missing
-- => data not received/configured
Back to Top Back to Top
3/2/2022 02:00 to 1:10 29.018 28.951 28.979 28.956 28.917 28.895
3/2/2022 01:00 to 0:10 28.853 28.770 28.747 28.729 28.666 28.652
3/2/2022 00:00 to 23:10 28.656 28.630 28.564 28.562 28.507 28.539
3/1/2022 23:00 to 22:10 28.500 28.491 28.473 28.452 28.397 28.408
3/1/2022 22:00 to 21:10 28.403 28.390 28.374 28.367 28.358 28.373
3/1/2022 21:00 to 20:10 28.356 28.355 28.352 28.351 28.345 28.336
3/1/2022 20:00 to 19:10 28.341 28.337 28.345 28.347 28.338 28.346
3/1/2022 19:00 to 18:10 28.333 28.341 28.340 28.351 28.340 28.339
3/1/2022 18:00 to 17:10 28.342 28.342 28.346 28.338 28.357 28.353
3/1/2022 17:00 to 16:10 28.357 28.345 28.354 28.354 28.350 28.355
3/1/2022 16:00 to 15:10 28.367 28.367 28.371 28.361 28.364 28.358
3/1/2022 15:00 to 14:10 28.350 28.357 28.362 28.365 28.375 28.349
3/1/2022 14:00 to 13:10 28.380 28.380 28.382 28.392 28.379 28.392
3/1/2022 13:00 to 12:10 28.393 28.398 28.381 28.396 28.396 28.392
3/1/2022 12:00 to 11:10 28.408 28.399 28.402 28.419 28.421 28.426
3/1/2022 11:00 to 10:10 28.440 28.444 28.450 28.438 28.435 28.459
3/1/2022 10:00 to 9:10 28.449 28.458 28.461 28.483 28.491 28.501
3/1/2022 09:00 to 8:10 28.501 28.511 28.512 28.521 28.511 28.525
3/1/2022 08:00 to 7:10 28.546 28.552 28.572 28.562 28.556 28.568
3/1/2022 07:00 to 6:10 28.571 28.562 28.570 28.585 28.596 28.586
3/1/2022 06:00 to 5:10 28.607 28.622 28.633 28.659 28.653 28.659
3/1/2022 05:00 to 4:10 28.684 28.699 28.668 28.688 28.736 28.719
3/1/2022 04:00 to 3:10 28.736 28.711 28.700 28.727 28.731 28.722
3/1/2022 03:00 to 2:10 28.709 28.674 28.680 28.712 28.720 28.697
3/1/2022 02:00 to 1:10 28.687 28.691 28.679 28.687 28.675 28.655
3/1/2022 01:00 to 0:10 28.638 28.653 28.644 28.652 28.628 28.624

 

 

 

Conductivity [S/m]     6 entries per hour
Showing data from 3/2/2022 (02:00:00 Z) to 3/1/2022 (00:00:01 Z)
Previous Next [ Day | 3-Days | 7-Days ]
First Last
Prev [ Day | 3-Days | 7-Days ] Next
First Last

Start Time:     :
End Time:     :     
Time (in GMT) :00 :50 :40 :30 :20 :10
Previous Next [ Day | 3-Days | 7-Days ]
First Last
Prev [ Day | 3-Days | 7-Days ] Next
First Last


123 => good data
MM => data is determined as missing
-- => data not received/configured
Back to Top Back to Top
3/2/2022 02:00 to 1:10 5.85526 5.84605 5.85030 5.84594 5.84446 5.84002
3/2/2022 01:00 to 0:10 5.83158 5.82188 5.82072 5.81602 5.81022 5.80794
3/2/2022 00:00 to 23:10 5.80759 5.80446 5.79500 5.79302 5.78784 5.79037
3/1/2022 23:00 to 22:10 5.78567 5.78606 5.78310 5.77931 5.77519 5.77551
3/1/2022 22:00 to 21:10 5.77418 5.77303 5.77153 5.77000 5.76940 5.77060
3/1/2022 21:00 to 20:10 5.76927 5.76912 5.76881 5.76881 5.76800 5.76723
3/1/2022 20:00 to 19:10 5.76779 5.76764 5.76811 5.76785 5.76794 5.76812
3/1/2022 19:00 to 18:10 5.76719 5.76753 5.76779 5.76890 5.76818 5.76815
3/1/2022 18:00 to 17:10 5.76802 5.76872 5.76869 5.76859 5.76975 5.77033
3/1/2022 17:00 to 16:10 5.77029 5.76992 5.77007 5.77098 5.77048 5.77073
3/1/2022 16:00 to 15:10 5.77157 5.77201 5.77224 5.77188 5.77201 5.77181
3/1/2022 15:00 to 14:10 5.77185 5.77201 5.77257 5.77236 5.77332 5.77251
3/1/2022 14:00 to 13:10 5.77413 5.77398 5.77452 5.77512 5.77454 5.77504
3/1/2022 13:00 to 12:10 5.77542 5.77608 5.77531 5.77651 5.77669 5.77679
3/1/2022 12:00 to 11:10 5.77785 5.77755 5.77845 5.77875 5.77962 5.78044
3/1/2022 11:00 to 10:10 5.78173 5.78262 5.78354 5.78247 5.78309 5.78532
3/1/2022 10:00 to 9:10 5.78408 5.78625 5.78692 5.78758 5.78937 5.79013
3/1/2022 09:00 to 8:10 5.79029 5.79190 5.79248 5.79365 5.79271 5.79456
3/1/2022 08:00 to 7:10 5.79615 5.79741 5.79929 5.79913 5.79837 5.79955
3/1/2022 07:00 to 6:10 5.80024 5.80046 5.80083 5.80267 5.80376 5.80313
3/1/2022 06:00 to 5:10 5.80524 5.80705 5.80780 5.81134 5.81101 5.81183
3/1/2022 05:00 to 4:10 5.81440 5.81612 5.81313 5.81510 5.82036 5.81904
3/1/2022 04:00 to 3:10 5.82054 5.81848 5.81732 5.81978 5.81983 5.81942
3/1/2022 03:00 to 2:10 5.81750 5.81525 5.81529 5.81884 5.81854 5.81653
3/1/2022 02:00 to 1:10 5.81602 5.81554 5.81543 5.81567 5.81449 5.81130
3/1/2022 01:00 to 0:10 5.80871 5.81036 5.81059 5.81037 5.80912 5.80813

 

 

 

Salinity [psu]     6 entries per hour
Showing data from 3/2/2022 (02:00:00 Z) to 3/1/2022 (00:00:01 Z)
Previous Next [ Day | 3-Days | 7-Days ]
First Last
Prev [ Day | 3-Days | 7-Days ] Next
First Last

Start Time:     :
End Time:     :     
Time (in GMT) :00 :50 :40 :30 :20 :10
Previous Next [ Day | 3-Days | 7-Days ]
First Last
Prev [ Day | 3-Days | 7-Days ] Next
First Last


123 => good data
MM => data is determined as missing
-- => data not received/configured
Back to Top Back to Top
3/2/2022 02:00 to 1:10 35.86 35.84 35.85 35.84 35.86 35.84
3/2/2022 01:00 to 0:10 35.82 35.81 35.82 35.80 35.81 35.80
3/2/2022 00:00 to 23:10 35.80 35.80 35.78 35.77 35.77 35.77
3/1/2022 23:00 to 22:10 35.76 35.77 35.77 35.76 35.77 35.76
3/1/2022 22:00 to 21:10 35.76 35.76 35.76 35.76 35.76 35.76
3/1/2022 21:00 to 20:10 35.76 35.76 35.76 35.76 35.76 35.76
3/1/2022 20:00 to 19:10 35.76 35.76 35.76 35.76 35.76 35.76
3/1/2022 19:00 to 18:10 35.76 35.76 35.76 35.76 35.76 35.76
3/1/2022 18:00 to 17:10 35.76 35.77 35.76 35.77 35.76 35.77
3/1/2022 17:00 to 16:10 35.77 35.77 35.77 35.77 35.77 35.77
3/1/2022 16:00 to 15:10 35.77 35.77 35.77 35.77 35.77 35.77
3/1/2022 15:00 to 14:10 35.78 35.78 35.78 35.77 35.77 35.79
3/1/2022 14:00 to 13:10 35.77 35.77 35.78 35.77 35.78 35.77
3/1/2022 13:00 to 12:10 35.77 35.77 35.78 35.78 35.78 35.78
3/1/2022 12:00 to 11:10 35.78 35.78 35.79 35.78 35.78 35.78
3/1/2022 11:00 to 10:10 35.78 35.79 35.79 35.79 35.80 35.79
3/1/2022 10:00 to 9:10 35.79 35.80 35.80 35.79 35.80 35.80
3/1/2022 09:00 to 8:10 35.80 35.80 35.80 35.80 35.81 35.81
3/1/2022 08:00 to 7:10 35.80 35.81 35.81 35.81 35.81 35.81
3/1/2022 07:00 to 6:10 35.81 35.82 35.82 35.82 35.82 35.82
3/1/2022 06:00 to 5:10 35.82 35.82 35.82 35.82 35.83 35.83
3/1/2022 05:00 to 4:10 35.83 35.83 35.83 35.83 35.83 35.83
3/1/2022 04:00 to 3:10 35.83 35.83 35.83 35.83 35.83 35.83
3/1/2022 03:00 to 2:10 35.83 35.84 35.83 35.84 35.83 35.83
3/1/2022 02:00 to 1:10 35.83 35.83 35.84 35.83 35.83 35.83
3/1/2022 01:00 to 0:10 35.82 35.82 35.83 35.82 35.83 35.83